Time;durP1;ratioP1;P1;durP2;ratioP2;P2;SDS_P1;SDS_P2;PMS_P1;PMS_P2;Temp;Humidity;BMP_temperature;BMP_pressure;BME280_temperature;BME280_humidity;BME280_pressure;Samples;Min_cycle;Max_cycle;Signal;HPM_P1;HPM_P2
2023/09/10 00:02:15;;;;;;;9.20;7.90;;;16.60;99.90;;;;;;5017751;28;20216;-80
2023/09/10 00:04:43;;;;;;;8.85;7.45;;;16.60;99.90;;;;;;5011556;28;20247;-80
2023/09/10 00:07:10;;;;;;;10.63;7.53;;;16.90;99.90;;;;;;5018540;28;20235;-81
2023/09/10 00:09:38;;;;;;;10.60;7.43;;;16.90;99.90;;;;;;5011301;28;20208;-82
2023/09/10 00:12:06;;;;;;;9.95;7.65;;;16.80;99.90;;;;;;5011883;28;20225;-81
2023/09/10 00:14:33;;;;;;;11.80;7.68;;;16.90;99.90;;;;;;5009885;28;20308;-81
2023/09/10 00:16:59;;;;;;;9.80;7.45;;;16.90;99.90;;;;;;5014758;28;20231;-80
2023/09/10 00:19:26;;;;;;;9.63;7.68;;;16.80;99.90;;;;;;5009255;28;20221;-83
2023/09/10 00:21:54;;;;;;;10.32;7.78;;;16.80;99.90;;;;;;5019301;28;20220;-80
2023/09/10 00:24:21;;;;;;;12.30;8.18;;;16.50;99.90;;;;;;5016570;28;20216;-81
2023/09/10 00:26:48;;;;;;;10.40;7.55;;;16.20;99.90;;;;;;5010906;28;20239;-82
2023/09/10 00:29:15;;;;;;;10.02;7.82;;;16.20;99.90;;;;;;5013676;28;20208;-82
2023/09/10 00:31:41;;;;;;;8.90;7.43;;;16.40;99.90;;;;;;5008141;28;20207;-80
2023/09/10 00:34:08;;;;;;;9.45;7.38;;;16.60;99.90;;;;;;5006280;28;20212;-82
2023/09/10 00:36:35;;;;;;;8.80;6.82;;;16.70;99.90;;;;;;5010943;28;20624;-82
2023/09/10 00:39:04;;;;;;;11.27;7.65;;;16.60;99.90;;;;;;5008233;28;20288;-81
2023/09/10 00:41:31;;;;;;;11.68;7.80;;;16.50;99.90;;;;;;5012360;28;20212;-81
2023/09/10 00:43:57;;;;;;;10.95;7.55;;;16.60;99.90;;;;;;5016506;28;20204;-82
2023/09/10 00:46:24;;;;;;;9.43;6.95;;;16.60;99.90;;;;;;5015264;28;20230;-80
2023/09/10 00:48:51;;;;;;;9.65;7.30;;;16.70;99.90;;;;;;5015217;28;20571;-82
2023/09/10 00:51:18;;;;;;;11.63;7.70;;;16.80;99.90;;;;;;5016706;28;20202;-81
2023/09/10 00:53:45;;;;;;;9.07;6.80;;;16.80;99.90;;;;;;5015515;28;20239;-80
2023/09/10 00:56:14;;;;;;;11.15;7.32;;;16.80;99.90;;;;;;5016849;28;20223;-81
2023/09/10 00:58:41;;;;;;;11.02;7.50;;;16.70;99.90;;;;;;5013663;28;20214;-82
2023/09/10 01:01:08;;;;;;;8.40;7.05;;;16.70;99.90;;;;;;5013558;28;20203;-80
2023/09/10 01:03:36;;;;;;;11.95;7.82;;;16.60;99.90;;;;;;5014432;28;20318;-80
2023/09/10 01:06:03;;;;;;;11.32;7.72;;;16.60;99.90;;;;;;5025471;28;20238;-81
2023/09/10 01:08:30;;;;;;;11.45;8.18;;;16.70;99.90;;;;;;5022148;28;20207;-81
2023/09/10 01:11:03;;;;;;;10.50;7.82;;;16.70;99.90;;;;;;5021447;28;20204;-82
2023/09/10 01:13:39;;;;;;;11.90;8.32;;;16.70;99.90;;;;;;5026173;28;20314;-82
2023/09/10 01:16:13;;;;;;;11.60;8.48;;;16.60;99.90;;;;;;5022453;28;20243;-80
2023/09/10 01:18:46;;;;;;;10.38;8.02;;;16.60;99.90;;;;;;5019812;28;20211;-81
2023/09/10 01:21:32;;;;;;;10.40;7.97;;;16.60;99.90;;;;;;5022131;28;20199;-81
2023/09/10 01:24:09;;;;;;;11.02;8.25;;;16.50;99.90;;;;;;5025521;28;20230;-81
2023/09/10 01:26:38;;;;;;;10.05;8.35;;;16.30;99.90;;;;;;5025259;28;20570;-81
2023/09/10 01:29:05;;;;;;;12.68;8.68;;;16.30;99.90;;;;;;5025227;28;20210;-82
2023/09/10 01:31:35;;;;;;;13.82;8.52;;;16.40;99.90;;;;;;5022941;28;20205;-81
2023/09/10 01:34:07;;;;;;;10.23;8.27;;;16.40;99.90;;;;;;5020247;28;20203;-80
2023/09/10 01:36:40;;;;;;;10.18;7.70;;;16.40;99.90;;;;;;5033381;28;20204;-82
2023/09/10 01:39:12;;;;;;;11.85;8.20;;;16.50;99.90;;;;;;5030404;28;20579;-82
2023/09/10 01:42:06;;;;;;;11.73;7.88;;;16.60;99.90;;;;;;5023438;28;20279;-83
2023/09/10 01:44:35;;;;;;;10.48;8.05;;;16.70;99.90;;;;;;5002622;28;20233;-82
2023/09/10 01:47:02;;;;;;;12.15;8.07;;;16.70;99.90;;;;;;5002999;28;20212;-81
2023/09/10 01:49:29;;;;;;;12.18;8.30;;;16.70;99.90;;;;;;5003832;28;20236;-82
2023/09/10 01:51:56;;;;;;;12.57;8.52;;;16.80;99.90;;;;;;5033013;28;20199;-81
2023/09/10 01:54:23;;;;;;;9.73;7.50;;;17.00;99.90;;;;;;5043053;28;20204;-82
2023/09/10 01:56:52;;;;;;;11.27;7.93;;;17.00;99.90;;;;;;5043470;28;20235;-82
2023/09/10 01:59:19;;;;;;;11.65;8.68;;;17.10;99.90;;;;;;5042844;28;20208;-80
2023/09/10 02:01:46;;;;;;;10.27;7.97;;;17.10;99.90;;;;;;5043168;28;20199;-82
2023/09/10 02:04:12;;;;;;;10.70;7.57;;;17.10;99.90;;;;;;5043974;28;20908;-81
2023/09/10 02:06:39;;;;;;;10.00;8.30;;;17.20;99.90;;;;;;5024216;28;20218;-82
2023/09/10 02:09:06;;;;;;;12.02;8.65;;;17.20;99.90;;;;;;5021254;28;20200;-82
2023/09/10 02:11:33;;;;;;;11.68;8.38;;;17.10;99.90;;;;;;5024447;28;20727;-81
2023/09/10 02:14:01;;;;;;;13.20;8.27;;;17.10;99.90;;;;;;5021043;28;20216;-80
2023/09/10 02:16:28;;;;;;;9.50;7.93;;;17.00;99.90;;;;;;5017695;28;20627;-81
2023/09/10 02:18:54;;;;;;;11.07;8.10;;;16.90;99.90;;;;;;5007981;28;20213;-80
2023/09/10 02:21:21;;;;;;;11.23;8.23;;;16.80;99.90;;;;;;5015831;28;20215;-79
2023/09/10 02:23:48;;;;;;;13.20;7.78;;;16.80;99.90;;;;;;5016861;28;20216;-81
2023/09/10 02:26:15;;;;;;;14.02;8.48;;;16.80;99.90;;;;;;5017364;28;20217;-80
2023/09/10 02:28:42;;;;;;;13.73;7.88;;;16.80;99.90;;;;;;5013762;28;20254;-81
2023/09/10 02:31:10;;;;;;;10.32;7.95;;;16.80;99.90;;;;;;5020143;28;22066;-82
2023/09/10 02:33:37;;;;;;;9.55;7.85;;;16.60;99.90;;;;;;5021025;28;20206;-82
2023/09/10 02:36:05;;;;;;;11.48;7.45;;;16.60;99.90;;;;;;5019358;28;20220;-81
2023/09/10 02:38:32;;;;;;;9.02;7.50;;;16.60;99.90;;;;;;5017752;28;20648;-80
2023/09/10 02:41:00;;;;;;;10.13;7.80;;;16.70;99.90;;;;;;5017082;28;20210;-80
2023/09/10 02:43:26;;;;;;;12.05;8.10;;;16.60;99.90;;;;;;5015082;28;20230;-81
2023/09/10 02:45:55;;;;;;;10.65;7.70;;;16.60;99.90;;;;;;5017071;28;20311;-81
2023/09/10 02:48:23;;;;;;;15.40;8.70;;;16.60;99.90;;;;;;5020989;28;20236;-82
2023/09/10 02:50:50;;;;;;;10.40;8.25;;;16.50;99.90;;;;;;5015265;28;20204;-80
2023/09/10 02:53:17;;;;;;;10.85;7.85;;;16.60;99.90;;;;;;5012935;28;20636;-81
2023/09/10 02:55:44;;;;;;;10.50;7.85;;;16.40;99.90;;;;;;5013281;28;20248;-82
2023/09/10 02:58:10;;;;;;;12.23;8.30;;;16.50;99.90;;;;;;5017709;28;20200;-81
2023/09/10 03:00:37;;;;;;;10.32;7.55;;;16.10;99.90;;;;;;5012497;28;20205;-80
2023/09/10 03:03:05;;;;;;;11.48;8.20;;;16.10;99.90;;;;;;5010837;28;20286;-81
2023/09/10 03:05:34;;;;;;;11.80;8.48;;;16.20;99.90;;;;;;5013800;28;20274;-80
2023/09/10 03:08:01;;;;;;;12.32;8.20;;;16.10;99.90;;;;;;5009907;28;20210;-81
2023/09/10 03:10:28;;;;;;;11.00;8.32;;;16.20;99.90;;;;;;5013934;28;20207;-81
2023/09/10 03:12:55;;;;;;;12.43;8.63;;;16.10;99.90;;;;;;5012847;28;20373;-80
2023/09/10 03:15:21;;;;;;;12.57;7.90;;;15.90;99.90;;;;;;5012671;28;20223;-81
2023/09/10 03:17:48;;;;;;;10.48;8.10;;;16.00;99.90;;;;;;5016545;28;20200;-81
2023/09/10 03:20:15;;;;;;;14.88;8.60;;;15.90;99.90;;;;;;5019223;28;20204;-80
2023/09/10 03:22:43;;;;;;;10.43;8.23;;;16.00;99.90;;;;;;5017423;28;20234;-81
2023/09/10 03:25:11;;;;;;;10.05;8.00;;;15.90;99.90;;;;;;5018109;28;20752;-81
2023/09/10 03:27:37;;;;;;;10.05;7.63;;;15.90;99.90;;;;;;5024161;28;20192;-80
2023/09/10 03:30:06;;;;;;;12.60;7.97;;;15.90;99.90;;;;;;5022285;28;20196;-82
2023/09/10 03:32:32;;;;;;;10.38;8.07;;;15.90;99.90;;;;;;5019023;28;20210;-82
2023/09/10 03:34:59;;;;;;;11.32;8.02;;;15.90;99.90;;;;;;5006429;28;20228;-82
2023/09/10 03:37:26;;;;;;;12.30;8.20;;;16.10;99.90;;;;;;4999983;28;20225;-80
2023/09/10 03:39:54;;;;;;;13.27;8.10;;;15.90;99.90;;;;;;4999950;28;20755;-82
2023/09/10 03:42:21;;;;;;;12.00;8.45;;;15.90;99.90;;;;;;5006338;28;20195;-82
2023/09/10 03:44:48;;;;;;;11.07;8.30;;;15.90;99.90;;;;;;5038618;28;20228;-81
2023/09/10 03:47:15;;;;;;;11.80;8.65;;;15.80;99.90;;;;;;5021540;28;20201;-81
2023/09/10 03:49:41;;;;;;;10.95;8.40;;;15.70;99.90;;;;;;5018892;28;20217;-81
2023/09/10 03:52:19;;;;;;;10.88;7.97;;;15.90;99.90;;;;;;5017112;28;20202;-81
2023/09/10 03:54:46;;;;;;;10.98;8.63;;;16.00;99.90;;;;;;5014635;28;20502;-81
2023/09/10 03:57:14;;;;;;;13.35;8.52;;;16.00;99.90;;;;;;5021005;28;20593;-81
2023/09/10 03:59:41;;;;;;;13.32;9.27;;;16.00;99.90;;;;;;5014111;28;20202;-82
2023/09/10 04:02:09;;;;;;;11.18;8.20;;;16.10;99.90;;;;;;4999425;28;20209;-82
2023/09/10 04:04:36;;;;;;;10.88;8.27;;;15.90;99.90;;;;;;4998671;28;20619;-81
2023/09/10 04:07:03;;;;;;;12.32;8.50;;;16.00;99.90;;;;;;5006148;28;20232;-81
2023/09/10 04:09:30;;;;;;;13.50;8.80;;;15.90;99.90;;;;;;5018565;28;20207;-81
2023/09/10 04:11:57;;;;;;;11.98;8.70;;;15.90;99.90;;;;;;5018497;28;20228;-81
2023/09/10 04:14:26;;;;;;;10.73;8.80;;;15.80;99.90;;;;;;5018927;28;20208;-81
2023/09/10 04:16:53;;;;;;;13.65;9.63;;;16.00;99.90;;;;;;5017941;28;20295;-81
2023/09/10 04:19:20;;;;;;;13.60;8.73;;;16.00;99.90;;;;;;5017837;28;20212;-81
2023/09/10 04:21:48;;;;;;;12.40;9.52;;;16.00;99.90;;;;;;5018301;28;20204;-81
2023/09/10 04:24:15;;;;;;;11.07;8.77;;;16.10;99.90;;;;;;5021143;28;20266;-81
2023/09/10 04:26:42;;;;;;;12.40;9.00;;;16.10;99.90;;;;;;5013378;28;20703;-81
2023/09/10 04:29:09;;;;;;;13.88;9.52;;;16.20;99.90;;;;;;5022083;28;20203;-81
2023/09/10 04:31:41;;;;;;;11.98;8.75;;;16.10;99.90;;;;;;5017572;28;20665;-80
2023/09/10 04:34:08;;;;;;;11.77;8.77;;;16.00;99.90;;;;;;5017359;28;20248;-82
2023/09/10 04:36:35;;;;;;;13.50;8.93;;;16.00;99.90;;;;;;5024244;28;20195;-81
2023/09/10 04:39:07;;;;;;;18.45;9.80;;;16.00;99.90;;;;;;5038200;28;20302;-81
2023/09/10 04:41:35;;;;;;;16.52;9.88;;;16.00;99.90;;;;;;5039575;28;20192;-81
2023/09/10 04:44:01;;;;;;;12.80;8.75;;;15.70;99.90;;;;;;5031154;28;20299;-84
2023/09/10 04:46:28;;;;;;;12.80;9.18;;;15.80;99.90;;;;;;5018650;28;20248;-84
2023/09/10 04:48:57;;;;;;;13.30;9.93;;;15.90;99.90;;;;;;5017597;28;20287;-82
2023/09/10 04:51:24;;;;;;;12.88;9.43;;;16.00;99.90;;;;;;5017456;28;20212;-84
2023/09/10 04:53:51;;;;;;;15.32;9.35;;;16.00;99.90;;;;;;5016213;28;20685;-81
2023/09/10 04:56:18;;;;;;;12.65;9.90;;;16.00;99.90;;;;;;5016904;28;20310;-85
2023/09/10 04:58:45;;;;;;;19.65;14.70;;;16.10;99.90;;;;;;5026645;28;20631;-82
2023/09/10 05:01:12;;;;;;;15.80;11.45;;;16.10;99.90;;;;;;5017782;28;20218;-83
2023/09/10 05:03:41;;;;;;;11.98;9.00;;;16.20;99.90;;;;;;5017288;28;20708;-83
2023/09/10 05:06:10;;;;;;;13.73;8.52;;;16.20;99.90;;;;;;5025772;28;20631;-82
2023/09/10 05:08:38;;;;;;;12.77;9.32;;;16.00;99.90;;;;;;5021336;28;20296;-82
2023/09/10 05:11:05;;;;;;;12.90;8.65;;;15.90;99.90;;;;;;5015405;28;20204;-82
2023/09/10 05:13:32;;;;;;;12.95;9.13;;;15.80;99.90;;;;;;5018333;28;20212;-82
2023/09/10 05:15:58;;;;;;;13.63;9.13;;;15.90;99.90;;;;;;5021021;28;20232;-83
2023/09/10 05:18:25;;;;;;;13.10;9.32;;;16.00;99.90;;;;;;5019317;28;20302;-83
2023/09/10 05:20:53;;;;;;;13.77;9.15;;;15.90;99.90;;;;;;5019141;28;20204;-81
2023/09/10 05:23:22;;;;;;;12.52;9.35;;;16.00;99.90;;;;;;5018650;28;20216;-81
2023/09/10 05:25:49;;;;;;;12.13;9.70;;;15.90;99.90;;;;;;5018799;28;20220;-81
2023/09/10 05:28:16;;;;;;;13.63;9.88;;;15.90;99.90;;;;;;5018233;28;20215;-80
2023/09/10 05:30:46;;;;;;;14.13;9.55;;;16.00;99.90;;;;;;5018897;28;20213;-82
2023/09/10 05:33:14;;;;;;;14.63;9.88;;;16.00;99.90;;;;;;5017920;28;20264;-82
2023/09/10 05:35:41;;;;;;;12.55;9.45;;;16.00;99.90;;;;;;5018055;28;20223;-82
2023/09/10 05:38:10;;;;;;;13.75;10.07;;;16.00;99.90;;;;;;5018174;28;20205;-82
2023/09/10 05:40:39;;;;;;;13.10;10.15;;;15.90;99.90;;;;;;5015673;28;20204;-82
2023/09/10 05:43:06;;;;;;;12.05;9.35;;;16.00;99.90;;;;;;5015525;28;20236;-82
2023/09/10 05:45:34;;;;;;;13.65;10.05;;;16.10;99.90;;;;;;5005681;28;20264;-80
2023/09/10 05:48:01;;;;;;;13.65;8.95;;;16.10;99.90;;;;;;5017757;28;20201;-82
2023/09/10 05:50:28;;;;;;;12.75;8.68;;;16.20;99.90;;;;;;4999772;28;20646;-82
2023/09/10 05:52:56;;;;;;;13.15;9.55;;;16.20;99.90;;;;;;5013967;28;20831;-82
2023/09/10 05:55:24;;;;;;;12.30;9.32;;;16.10;99.90;;;;;;5021282;28;20259;-82
2023/09/10 05:57:53;;;;;;;12.85;8.98;;;16.30;99.90;;;;;;5021110;28;20213;-81
2023/09/10 06:00:20;;;;;;;12.68;9.60;;;16.30;99.90;;;;;;5021071;28;20208;-81
2023/09/10 06:02:48;;;;;;;13.50;9.85;;;16.30;99.90;;;;;;5007775;28;20196;-81
2023/09/10 06:05:15;;;;;;;12.27;8.82;;;16.50;99.90;;;;;;5020792;28;20314;-82
2023/09/10 06:07:43;;;;;;;12.73;9.77;;;16.40;99.90;;;;;;5019554;28;20224;-82
2023/09/10 06:10:10;;;;;;;20.27;12.40;;;16.40;99.90;;;;;;5020641;28;20212;-81
2023/09/10 06:12:40;;;;;;;14.95;10.00;;;16.50;99.90;;;;;;5009347;28;20211;-82
2023/09/10 06:15:09;;;;;;;12.57;9.75;;;16.60;99.90;;;;;;5019981;28;20586;-81
2023/09/10 06:17:36;;;;;;;15.00;9.93;;;16.60;99.90;;;;;;5013555;28;20205;-80
2023/09/10 06:20:05;;;;;;;13.00;10.07;;;16.70;99.90;;;;;;5017989;28;20210;-81
2023/09/10 06:22:32;;;;;;;12.40;9.55;;;16.60;99.90;;;;;;5018962;28;20222;-82
2023/09/10 06:24:59;;;;;;;13.57;10.23;;;16.80;99.90;;;;;;5013363;28;20224;-82
2023/09/10 06:27:26;;;;;;;12.88;10.07;;;16.80;99.90;;;;;;5017824;28;20206;-81
2023/09/10 06:29:53;;;;;;;13.50;9.48;;;16.90;99.90;;;;;;5017665;28;20200;-81
2023/09/10 06:32:21;;;;;;;11.93;9.48;;;17.00;99.90;;;;;;5018237;28;20582;-81
2023/09/10 06:34:48;;;;;;;16.52;10.40;;;17.10;99.90;;;;;;5019293;28;20224;-83
2023/09/10 06:37:15;;;;;;;15.18;9.68;;;17.20;99.90;;;;;;5024928;28;20302;-80
2023/09/10 06:39:42;;;;;;;16.05;9.55;;;17.20;99.90;;;;;;5017371;28;20660;-82
2023/09/10 06:42:12;;;;;;;13.35;9.73;;;17.30;99.90;;;;;;5009193;28;20563;-81
2023/09/10 06:44:42;;;;;;;15.40;9.60;;;17.40;99.90;;;;;;5015541;28;20731;-81
2023/09/10 06:47:09;;;;;;;11.18;9.00;;;17.50;99.90;;;;;;5017936;28;20287;-81
2023/09/10 06:49:37;;;;;;;15.63;9.63;;;17.60;99.90;;;;;;5016833;28;20200;-83
2023/09/10 06:52:06;;;;;;;13.18;8.98;;;17.70;99.90;;;;;;5018076;28;20211;-82
2023/09/10 06:54:33;;;;;;;13.32;8.88;;;17.80;99.90;;;;;;5014689;28;20224;-81
2023/09/10 06:57:00;;;;;;;13.77;9.30;;;17.90;99.90;;;;;;5017257;28;20204;-84
2023/09/10 06:59:28;;;;;;;13.57;9.68;;;18.00;99.90;;;;;;5017900;28;20204;-82
2023/09/10 07:01:58;;;;;;;11.75;8.55;;;18.10;99.90;;;;;;5019028;28;20677;-81
2023/09/10 07:04:26;;;;;;;14.25;8.93;;;18.10;99.90;;;;;;5019499;28;20230;-82
2023/09/10 07:06:55;;;;;;;12.63;8.95;;;18.30;99.90;;;;;;5019479;28;20464;-80
2023/09/10 07:09:23;;;;;;;18.45;10.20;;;18.40;99.90;;;;;;5020774;28;20227;-80
2023/09/10 07:11:50;;;;;;;12.57;9.73;;;18.50;99.90;;;;;;5020833;28;20208;-81
2023/09/10 07:14:17;;;;;;;13.43;9.15;;;18.60;99.90;;;;;;5018827;28;20204;-82
2023/09/10 07:16:44;;;;;;;13.57;9.52;;;18.70;99.90;;;;;;5017939;28;20215;-81
2023/09/10 07:19:12;;;;;;;13.38;9.70;;;18.80;99.90;;;;;;5017659;28;20216;-82
2023/09/10 07:21:39;;;;;;;11.35;8.80;;;18.90;99.90;;;;;;5012151;28;20209;-81
2023/09/10 07:24:09;;;;;;;13.63;9.35;;;19.00;99.90;;;;;;5018556;28;20227;-82
2023/09/10 07:26:36;;;;;;;12.35;9.48;;;19.10;99.90;;;;;;5019215;28;20204;-81
2023/09/10 07:29:04;;;;;;;14.98;11.07;;;19.20;99.90;;;;;;5021120;28;20227;-82
2023/09/10 07:31:31;;;;;;;12.73;9.55;;;19.30;99.90;;;;;;5021778;28;20578;-82
2023/09/10 07:33:57;;;;;;;13.55;10.27;;;19.40;99.90;;;;;;5020372;28;20214;-83
2023/09/10 07:36:24;;;;;;;12.68;9.60;;;19.60;99.90;;;;;;5019110;28;20307;-83
2023/09/10 07:38:52;;;;;;;12.95;9.57;;;19.70;99.90;;;;;;4998623;28;20201;-81
2023/09/10 07:41:20;;;;;;;14.05;10.75;;;19.80;99.90;;;;;;5004489;28;20204;-83
2023/09/10 07:43:47;;;;;;;17.83;11.20;;;19.90;99.90;;;;;;5016084;28;20541;-81
2023/09/10 07:46:14;;;;;;;14.07;10.85;;;20.00;99.90;;;;;;5015326;28;20259;-81
2023/09/10 07:48:40;;;;;;;15.55;11.68;;;20.10;99.90;;;;;;5015990;28;20384;-82
2023/09/10 07:51:07;;;;;;;17.08;11.43;;;20.10;99.90;;;;;;5003241;28;20223;-81
2023/09/10 07:53:34;;;;;;;18.95;14.00;;;20.20;99.90;;;;;;5016094;28;20208;-81
2023/09/10 07:56:01;;;;;;;17.55;13.75;;;20.30;99.90;;;;;;5014762;28;20220;-83
2023/09/10 07:58:29;;;;;;;17.90;13.23;;;20.40;99.90;;;;;;5001397;28;20201;-84
2023/09/10 08:00:57;;;;;;;18.73;12.68;;;20.50;99.90;;;;;;5014145;28;20673;-83
2023/09/10 08:03:24;;;;;;;18.55;13.25;;;20.70;99.90;;;;;;5014679;28;20201;-81
2023/09/10 08:05:51;;;;;;;18.98;14.48;;;20.60;99.90;;;;;;5016819;28;20583;-83
2023/09/10 08:08:18;;;;;;;19.75;14.32;;;20.70;99.90;;;;;;5018272;28;20204;-83
2023/09/10 08:10:46;;;;;;;20.05;15.20;;;20.80;99.90;;;;;;5009654;28;20204;-82
2023/09/10 08:13:13;;;;;;;21.65;16.83;;;20.90;99.90;;;;;;5006768;28;20239;-84
2023/09/10 08:15:41;;;;;;;19.63;15.48;;;21.00;99.90;;;;;;5015725;28;20263;-84
2023/09/10 08:18:10;;;;;;;18.90;15.52;;;21.20;99.90;;;;;;5017695;28;20295;-82
2023/09/10 08:20:38;;;;;;;23.00;18.00;;;21.20;99.90;;;;;;5009111;28;20201;-83
2023/09/10 08:23:05;;;;;;;20.00;16.38;;;21.10;99.90;;;;;;5015325;28;20212;-82
2023/09/10 08:25:32;;;;;;;21.17;16.23;;;21.20;99.90;;;;;;5013346;28;20223;-79
2023/09/10 08:28:00;;;;;;;19.77;15.30;;;21.30;99.90;;;;;;5018653;28;20695;-83
2023/09/10 08:30:27;;;;;;;18.27;14.00;;;21.40;99.90;;;;;;5010077;28;20643;-81
2023/09/10 08:32:55;;;;;;;19.30;14.57;;;21.60;99.90;;;;;;5012014;28;20240;-83
2023/09/10 08:35:23;;;;;;;18.13;13.65;;;21.60;99.90;;;;;;5016891;28;20228;-82
2023/09/10 08:37:50;;;;;;;19.85;14.90;;;21.60;99.90;;;;;;5017370;28;20663;-84
2023/09/10 08:40:17;;;;;;;17.40;14.98;;;21.60;99.90;;;;;;5011349;28;20214;-80
2023/09/10 08:42:53;;;;;;;19.83;14.85;;;21.80;99.90;;;;;;5019774;28;20200;-81
2023/09/10 08:45:20;;;;;;;16.92;13.02;;;21.80;99.90;;;;;;5016173;28;20235;-83
2023/09/10 08:47:49;;;;;;;17.13;14.60;;;21.90;99.90;;;;;;5018831;28;20712;-82
2023/09/10 08:50:18;;;;;;;17.60;15.20;;;21.90;99.90;;;;;;5015060;28;20660;-84
2023/09/10 08:52:48;;;;;;;19.63;15.25;;;22.00;99.90;;;;;;5011837;28;20211;-84
2023/09/10 08:55:15;;;;;;;18.17;15.23;;;22.00;99.90;;;;;;5012187;28;20224;-83
2023/09/10 08:57:43;;;;;;;20.20;15.77;;;22.20;99.90;;;;;;5015337;28;20209;-83
2023/09/10 09:00:12;;;;;;;20.08;16.05;;;22.30;99.90;;;;;;5015283;28;20208;-82
2023/09/10 09:02:40;;;;;;;19.67;14.55;;;22.40;99.90;;;;;;5007842;28;20204;-83
2023/09/10 09:05:08;;;;;;;19.38;14.93;;;22.60;99.90;;;;;;5007177;28;20220;-82
2023/09/10 09:07:42;;;;;;;19.98;15.15;;;22.80;99.90;;;;;;5015217;28;20224;-81
2023/09/10 09:10:12;;;;;;;19.75;15.38;;;22.80;99.90;;;;;;5016604;28;20196;-80
2023/09/10 09:12:42;;;;;;;18.40;15.63;;;23.00;99.90;;;;;;4998283;28;20261;-81
2023/09/10 09:15:10;;;;;;;18.63;15.45;;;23.50;99.90;;;;;;5008017;28;20582;-80
2023/09/10 09:17:39;;;;;;;19.70;15.13;;;23.70;99.90;;;;;;5015007;28;20215;-80
2023/09/10 09:20:11;;;;;;;18.38;15.15;;;24.20;99.90;;;;;;5010576;28;20573;-80
2023/09/10 09:22:42;;;;;;;18.48;14.55;;;24.20;99.90;;;;;;5011076;28;20212;-81
2023/09/10 09:25:10;;;;;;;24.10;14.27;;;24.60;99.90;;;;;;5013431;28;20613;-81
2023/09/10 09:27:38;;;;;;;21.30;15.38;;;24.80;99.90;;;;;;5018841;28;20208;-78
2023/09/10 09:30:06;;;;;;;22.30;14.93;;;25.30;99.90;;;;;;5019382;28;20295;-81
2023/09/10 09:32:36;;;;;;;20.48;14.02;;;25.60;99.90;;;;;;5011355;28;20271;-81
2023/09/10 09:35:03;;;;;;;16.17;12.93;;;25.70;99.90;;;;;;5004061;28;20252;-81
2023/09/10 09:37:31;;;;;;;15.02;13.07;;;26.10;99.90;;;;;;5005744;28;20723;-81
2023/09/10 09:40:00;;;;;;;17.20;13.68;;;26.10;99.90;;;;;;5018639;28;20207;-80
2023/09/10 09:42:27;;;;;;;19.10;15.38;;;26.30;99.90;;;;;;5010149;28;20300;-81
2023/09/10 09:44:55;;;;;;;18.88;14.90;;;26.10;99.90;;;;;;5006576;28;20231;-81
2023/09/10 09:47:21;;;;;;;17.17;14.43;;;26.10;99.90;;;;;;5018258;28;20220;-81
2023/09/10 09:49:49;;;;;;;16.02;13.65;;;26.70;99.90;;;;;;5018845;28;20292;-79
2023/09/10 09:52:17;;;;;;;19.27;15.63;;;26.90;99.90;;;;;;5017239;28;20231;-79
2023/09/10 09:54:45;;;;;;;16.23;13.32;;;27.10;99.90;;;;;;5018243;28;20563;-78
2023/09/10 09:57:13;;;;;;;16.60;14.27;;;27.30;99.90;;;;;;5019829;28;20200;-79
2023/09/10 09:59:40;;;;;;;18.02;14.15;;;27.40;99.90;;;;;;5018050;28;20196;-80
2023/09/10 10:02:12;;;;;;;18.38;15.23;;;27.40;99.90;;;;;;5018777;28;20243;-79
2023/09/10 10:04:40;;;;;;;18.85;15.10;;;27.10;99.90;;;;;;5018781;28;20226;-79
2023/09/10 10:07:08;;;;;;;16.75;14.48;;;27.50;99.90;;;;;;5018716;28;20208;-81
2023/09/10 10:09:36;;;;;;;17.67;14.05;;;27.60;99.90;;;;;;5013896;28;20197;-80
2023/09/10 10:12:03;;;;;;;17.75;13.88;;;27.80;99.90;;;;;;5016872;28;20243;-81
2023/09/10 10:14:33;;;;;;;17.45;14.23;;;27.70;99.90;;;;;;5017923;28;20226;-79
2023/09/10 10:17:02;;;;;;;17.60;14.60;;;27.80;99.90;;;;;;5016106;28;20218;-79
2023/09/10 10:19:31;;;;;;;14.75;13.15;;;27.80;99.90;;;;;;5009151;28;20216;-80
2023/09/10 10:21:58;;;;;;;14.60;12.48;;;28.10;99.90;;;;;;5018368;28;20205;-81
2023/09/10 10:24:25;;;;;;;15.15;13.57;;;28.00;99.90;;;;;;5016838;28;20200;-79
2023/09/10 10:26:52;;;;;;;17.73;13.20;;;28.00;99.90;;;;;;5017491;28;20243;-79
2023/09/10 10:29:20;;;;;;;17.55;13.60;;;28.00;99.90;;;;;;5017531;28;20648;-79
2023/09/10 10:31:56;;;;;;;19.00;13.52;;;28.10;99.90;;;;;;5017984;28;20220;-79
2023/09/10 10:34:24;;;;;;;16.50;13.52;;;28.50;99.90;;;;;;5018070;28;20294;-79
2023/09/10 10:36:59;;;;;;;15.40;13.63;;;28.20;99.90;;;;;;5016667;28;20641;-79
2023/09/10 10:39:36;;;;;;;14.90;11.90;;;28.30;99.90;;;;;;5017423;28;20223;-80
2023/09/10 10:42:05;;;;;;;17.10;12.93;;;28.70;99.90;;;;;;5017732;28;20657;-80
2023/09/10 10:44:35;;;;;;;17.75;12.98;;;28.30;99.90;;;;;;5017961;28;20228;-80
2023/09/10 10:47:18;;;;;;;17.02;12.77;;;28.40;99.90;;;;;;5018026;28;20227;-80
2023/09/10 10:49:52;;;;;;;13.35;11.10;;;28.80;99.90;;;;;;5018322;28;20232;-80
2023/09/10 10:52:23;;;;;;;15.75;12.15;;;29.20;99.90;;;;;;5017714;28;20203;-81
2023/09/10 10:54:52;;;;;;;15.50;12.10;;;29.10;99.90;;;;;;5018025;28;20224;-81
2023/09/10 10:57:20;;;;;;;13.65;11.73;;;28.50;99.90;;;;;;5017220;28;20254;-81
2023/09/10 10:59:47;;;;;;;14.73;11.80;;;28.20;99.90;;;;;;5018546;28;20200;-81
2023/09/10 11:02:21;;;;;;;17.13;12.77;;;28.50;99.90;;;;;;5016641;28;20212;-80
2023/09/10 11:04:56;;;;;;;14.52;11.35;;;28.30;99.90;;;;;;5014592;28;20269;-79
2023/09/10 11:07:23;;;;;;;13.10;11.60;;;28.70;99.90;;;;;;5013795;28;20210;-80
2023/09/10 11:09:50;;;;;;;13.63;12.23;;;28.20;99.90;;;;;;5017378;28;20200;-80
2023/09/10 11:12:17;;;;;;;12.95;11.32;;;27.70;99.90;;;;;;5017529;28;20207;-79
2023/09/10 11:15:12;;;;;;;15.15;11.60;;;28.40;99.90;;;;;;5017815;28;20224;-80
2023/09/10 11:17:40;;;;;;;15.95;11.02;;;29.10;99.90;;;;;;5018030;28;20189;-80
2023/09/10 11:20:08;;;;;;;12.43;10.80;;;29.70;99.90;;;;;;5018835;28;20200;-81
2023/09/10 11:23:09;;;;;;;14.85;10.93;;;29.80;99.90;;;;;;5011021;28;20637;-80
2023/09/10 11:25:39;;;;;;;12.10;10.85;;;29.70;99.90;;;;;;5012095;28;20597;-81
2023/09/10 11:28:37;;;;;;;15.90;11.00;;;29.70;99.90;;;;;;5018176;28;20620;-80
2023/09/10 11:31:05;;;;;;;12.85;11.45;;;29.70;99.90;;;;;;5018464;28;20220;-84
2023/09/10 11:33:33;;;;;;;14.63;11.73;;;29.90;99.90;;;;;;5016401;28;20216;-80
2023/09/10 11:36:00;;;;;;;15.00;12.02;;;29.80;99.90;;;;;;5018494;28;20221;-78
2023/09/10 11:38:33;;;;;;;17.20;14.48;;;28.60;99.90;;;;;;5014660;28;20207;-79
2023/09/10 11:41:00;;;;;;;13.93;11.65;;;28.70;99.90;;;;;;5013222;28;20196;-78
2023/09/10 11:43:29;;;;;;;14.10;11.43;;;28.90;99.90;;;;;;5013513;28;20197;-79
2023/09/10 11:45:57;;;;;;;14.68;11.02;;;29.10;99.90;;;;;;5018175;28;20307;-80
2023/09/10 11:48:24;;;;;;;11.88;10.05;;;29.30;99.90;;;;;;5015522;28;20255;-78
2023/09/10 11:50:53;;;;;;;12.57;11.00;;;29.70;99.90;;;;;;5010575;28;20201;-79
2023/09/10 11:53:21;;;;;;;12.50;10.25;;;29.80;99.90;;;;;;5011667;28;20200;-78
2023/09/10 11:55:49;;;;;;;15.75;11.80;;;29.20;99.90;;;;;;5025586;28;20322;-79
2023/09/10 11:58:17;;;;;;;13.73;12.32;;;28.80;99.90;;;;;;5014871;28;20220;-79
2023/09/10 12:00:44;;;;;;;15.48;12.27;;;28.20;99.90;;;;;;5014612;28;20584;-78
2023/09/10 12:03:11;;;;;;;13.32;11.10;;;28.10;99.90;;;;;;5015653;28;20208;-78
2023/09/10 12:05:38;;;;;;;13.57;10.90;;;28.40;99.90;;;;;;5018727;28;20235;-78
2023/09/10 12:08:07;;;;;;;14.52;11.57;;;29.00;99.90;;;;;;5014536;28;20207;-78
2023/09/10 12:10:35;;;;;;;11.32;10.18;;;29.80;99.90;;;;;;5003417;28;20270;-79
2023/09/10 12:13:03;;;;;;;13.07;10.25;;;29.90;99.90;;;;;;5006743;28;20207;-78
2023/09/10 12:15:33;;;;;;;15.50;11.52;;;30.00;99.90;;;;;;5003724;28;20217;-78
2023/09/10 12:18:04;;;;;;;13.77;12.25;;;30.00;99.90;;;;;;5004991;28;20208;-79
2023/09/10 12:20:33;;;;;;;14.02;10.32;;;29.30;99.90;;;;;;5004123;28;20239;-79
2023/09/10 12:23:00;;;;;;;12.45;10.00;;;30.10;99.90;;;;;;5009913;28;20215;-79
2023/09/10 12:25:28;;;;;;;10.32;9.07;;;30.20;99.90;;;;;;5005088;28;20229;-79
2023/09/10 12:27:56;;;;;;;12.98;10.55;;;30.50;99.90;;;;;;5015573;28;20744;-80
2023/09/10 12:30:24;;;;;;;13.38;9.82;;;29.90;99.90;;;;;;5012912;28;20764;-79
2023/09/10 12:32:51;;;;;;;12.55;10.52;;;29.70;99.90;;;;;;5012111;28;20247;-79
2023/09/10 12:35:18;;;;;;;11.25;10.13;;;29.50;99.90;;;;;;5014315;28;20221;-79
2023/09/10 12:37:52;;;;;;;10.35;9.20;;;29.30;99.90;;;;;;5016284;28;20217;-79
2023/09/10 12:40:20;;;;;;;13.38;10.38;;;29.70;99.90;;;;;;5013141;28;20208;-79